11:54
Airports
History
Links
Donate
Help keep this website running!
PayPal
Bitcoin
This page is community maintained. The information is intended for PC simulator navigation or reference.
Always use approved charts for navigation.
SWRO
Rondonia
Rondonia (SWRO)
Porto Velho, Rondônia, Brazil (78912)
(C)
Lat/Lng:8° 47' 36" S / 63° 51' 29" W
-8.793333 / -63.858055
Elevation:312'ft / 95mMSL
ID / ICAO:SWRO
Runways:1
Longest:01-19
Concrete 1,304m / 4,277ft
Controlled:Yes
Nearby Weather12:00 GMT 2018-02-20
Nearby weather at SBPV, Governador Jorge Teixeira De Oliveira located 6.5 nautical miles from SWRO
Altimeter: 29.85
Visibility: 6.2 statute miles
Wind: 3 knots (from 030°)
Temp: 25°c / 77°f
Humidity: 88.7%

METAR: SBPV 201200Z 03003KT CAVOK 25/23 Q1011

(Powered by phpweather)
Runway 01 / 19
Dimensions:1303.6 x 18.6m 4277' x 61'ft
Surface:Concrete
Edge Lights:Medium intensity
Runway 01 [A]Runway 19 [B]
Heading:000°TH 180°TH
Lat:
Lng:
8° 47' 57.05"S
63° 51' 29"W
8° 47' 14.95"S
63° 51' 29"W
ALS:MALSMALS
User Notes and Comments
8° 47' 36" S / 63° 51' 29" W
Distance To
Airport ID:
Nearby Airports
(C) Governador Jorge Teixeira De Oliveira 6.5 NM
SBPV ( WX ) NNW 332°
4 Hidreletrica de Jirau 62.4 NM
SWGF SW 236°
(U) Ariquemes 93.4 NM
SJOG SE 143°
(C) Humaita 102.2 NM
SWHT NNE 31°
4 Fazenda Botelho 104.1 NM
SJNN SSW 198°
(C) Nova Vida 118.7 NM
SWNI SE 143°
4 Tabajara 119.1 NM
SWTB E 94°
VFR Chart
Flight Planning at SkyVector.com